Gas Wisdom — H9CC — position and weather

sailwx.info

Track history (hours):
 
Tides and Currents Weather Stations Pressure Air Temp Water Temp Dewpoint Dewpoint Depression Visibility Wind Speed Wind Dir Waves Ship Positions

Gas Wisdom

Last reported at 2018-May-14 11:10 UTC. Time now 2018-Jun-19 14:33 UTC.
Position N 15°16' E 071°54'.
Warning: this ship's position is 36 days out of date.

Length 225 m; draft 11.6 m.

Type: Ship (hazmat cat D). MMSI: 373435000.

Date/timePositionNaut miles runAvg speedWind from/ knotsBaromVisibWave heightAir tempDewpointWater temp
2018-May-14 11:10N 15°16' E 071°54'16014.6
2018-May-14 00:13N 17°36' E 070°33'314.6
2018-May-14 00:00N 17°39' E 070°31'1014.5
2018-May-13 23:18N 17°48' E 070°26'614.4
2018-May-13 22:52N 17°53' E 070°23'614.4
2018-May-13 22:26N 17°59' E 070°19'614.4
2018-May-13 22:00N 18°04' E 070°16'714.5
2018-May-13 21:30N 18°10' E 070°12'2214.5
2018-May-13 19:59N 18°30' E 070°01'714.3
2018-May-13 19:30N 18°36' E 069°57'814.3
2018-May-13 18:58N 18°42' E 069°54'714.4
2018-May-13 18:30N 18°48' E 069°50'714.5
2018-May-13 18:00N 18°55' E 069°47'714.4
2018-May-13 17:30N 19°01' E 069°43'714.5
2018-May-13 17:00N 19°07' E 069°39'814.8
2018-May-13 16:29N 19°14' E 069°35'714.8
2018-May-13 16:00N 19°20' E 069°31'814.9
2018-May-13 15:30N 19°26' E 069°27'715.0
2018-May-13 15:00N 19°33' E 069°23'715.0
2018-May-13 14:30N 19°39' E 069°19'814.9
2018-May-13 14:00N 19°46' E 069°15'714.6
2018-May-13 13:30N 19°52' E 069°11'714.5
2018-May-13 13:00N 19°59' E 069°08'814.3
2018-May-13 12:25N 20°06' E 069°03'614.2
2018-May-13 12:00N 20°11' E 069°00'814.9
2018-May-13 11:29N 20°18' E 068°56'915.8
2018-May-13 10:54N 20°25' E 068°51'615.3
2018-May-13 10:29N 20°31' E 068°47'714.4
2018-May-13 09:59N 20°37' E 068°43'713.9
2018-May-13 09:29N 20°42' E 068°39'7214.7
2018-May-13 04:33N 21°29' E 067°39'114.9
2018-May-13 04:30N 21°29' E 067°38'814.9
2018-May-13 04:00N 21°34' E 067°32'814.8
2018-May-13 03:26N 21°40' E 067°26'614.6
2018-May-13 03:00N 21°44' E 067°21'714.7
2018-May-13 02:30N 21°49' E 067°14'8414.4
2018-May-12 20:39N 22°43' E 066°04'1314.5
2018-May-12 19:45N 22°51' E 065°53'414.6
2018-May-12 19:29N 22°54' E 065°50'  
Track history (hours):
 
Tides and Currents Weather Stations Pressure Air Temp Water Temp Dewpoint Dewpoint Depression Visibility Wind Speed Wind Dir Waves Ship Positions

Gas Wisdom

Last reported at 2018-May-14 11:10 UTC. Time now 2018-Jun-19 14:33 UTC.
Position N 15°16' E 071°54'.
Warning: this ship's position is 36 days out of date.

Length 225 m; draft 11.6 m.

Type: Ship (hazmat cat D). MMSI: 373435000.

Date/timePositionNaut miles runAvg speedWind from/ knotsBaromVisibWave heightAir tempDewpointWater temp
2018-May-14 11:10N 15°16' E 071°54'16014.6
2018-May-14 00:13N 17°36' E 070°33'314.6
2018-May-14 00:00N 17°39' E 070°31'1014.5
2018-May-13 23:18N 17°48' E 070°26'614.4
2018-May-13 22:52N 17°53' E 070°23'614.4
2018-May-13 22:26N 17°59' E 070°19'614.4
2018-May-13 22:00N 18°04' E 070°16'714.5
2018-May-13 21:30N 18°10' E 070°12'2214.5
2018-May-13 19:59N 18°30' E 070°01'714.3
2018-May-13 19:30N 18°36' E 069°57'814.3
2018-May-13 18:58N 18°42' E 069°54'714.4
2018-May-13 18:30N 18°48' E 069°50'714.5
2018-May-13 18:00N 18°55' E 069°47'714.4
2018-May-13 17:30N 19°01' E 069°43'714.5
2018-May-13 17:00N 19°07' E 069°39'814.8
2018-May-13 16:29N 19°14' E 069°35'714.8
2018-May-13 16:00N 19°20' E 069°31'814.9
2018-May-13 15:30N 19°26' E 069°27'715.0
2018-May-13 15:00N 19°33' E 069°23'715.0
2018-May-13 14:30N 19°39' E 069°19'814.9
2018-May-13 14:00N 19°46' E 069°15'714.6
2018-May-13 13:30N 19°52' E 069°11'714.5
2018-May-13 13:00N 19°59' E 069°08'814.3
2018-May-13 12:25N 20°06' E 069°03'614.2
2018-May-13 12:00N 20°11' E 069°00'814.9
2018-May-13 11:29N 20°18' E 068°56'915.8
2018-May-13 10:54N 20°25' E 068°51'615.3
2018-May-13 10:29N 20°31' E 068°47'714.4
2018-May-13 09:59N 20°37' E 068°43'713.9
2018-May-13 09:29N 20°42' E 068°39'7214.7
2018-May-13 04:33N 21°29' E 067°39'114.9
2018-May-13 04:30N 21°29' E 067°38'814.9
2018-May-13 04:00N 21°34' E 067°32'814.8
2018-May-13 03:26N 21°40' E 067°26'614.6
2018-May-13 03:00N 21°44' E 067°21'714.7
2018-May-13 02:30N 21°49' E 067°14'8414.4
2018-May-12 20:39N 22°43' E 066°04'1314.5
2018-May-12 19:45N 22°51' E 065°53'414.6
2018-May-12 19:29N 22°54' E 065°50'  

Dump ship's entire track history